sensor_id;sensor_type;location;lat;lon;timestamp;P1;durP1;ratioP1;P2;durP2;ratioP2
53594;SDS011;39479;45.720;11.310;2024-03-22T00:00:22;64.70;;;37.80;;
53594;SDS011;39479;45.720;11.310;2024-03-22T00:02:48;56.95;;;35.30;;
53594;SDS011;39479;45.720;11.310;2024-03-22T00:05:14;58.50;;;36.35;;
53594;SDS011;39479;45.720;11.310;2024-03-22T00:07:41;52.88;;;35.13;;
53594;SDS011;39479;45.720;11.310;2024-03-22T00:10:07;57.17;;;35.25;;
53594;SDS011;39479;45.720;11.310;2024-03-22T00:12:33;50.97;;;32.72;;
53594;SDS011;39479;45.720;11.310;2024-03-22T00:14:59;46.03;;;28.75;;
53594;SDS011;39479;45.720;11.310;2024-03-22T00:17:25;47.78;;;30.20;;
53594;SDS011;39479;45.720;11.310;2024-03-22T00:19:51;47.75;;;30.60;;
53594;SDS011;39479;45.720;11.310;2024-03-22T00:22:17;45.55;;;28.92;;
53594;SDS011;39479;45.720;11.310;2024-03-22T00:24:43;41.35;;;27.67;;
53594;SDS011;39479;45.720;11.310;2024-03-22T00:27:09;44.60;;;27.25;;
53594;SDS011;39479;45.720;11.310;2024-03-22T00:29:36;38.83;;;25.38;;
53594;SDS011;39479;45.720;11.310;2024-03-22T00:32:03;32.25;;;20.88;;
53594;SDS011;39479;45.720;11.310;2024-03-22T00:34:29;28.00;;;18.65;;
53594;SDS011;39479;45.720;11.310;2024-03-22T00:36:55;21.65;;;14.40;;
53594;SDS011;39479;45.720;11.310;2024-03-22T00:39:21;10.32;;;7.45;;
53594;SDS011;39479;45.720;11.310;2024-03-22T00:41:47;9.35;;;4.97;;
53594;SDS011;39479;45.720;11.310;2024-03-22T00:44:13;21.15;;;14.60;;
53594;SDS011;39479;45.720;11.310;2024-03-22T00:46:39;27.67;;;18.98;;
53594;SDS011;39479;45.720;11.310;2024-03-22T00:49:05;33.67;;;20.95;;
53594;SDS011;39479;45.720;11.310;2024-03-22T00:51:31;28.38;;;18.23;;
53594;SDS011;39479;45.720;11.310;2024-03-22T00:53:57;23.95;;;15.00;;
53594;SDS011;39479;45.720;11.310;2024-03-22T00:56:23;15.20;;;10.98;;
53594;SDS011;39479;45.720;11.310;2024-03-22T00:58:49;12.80;;;8.65;;
53594;SDS011;39479;45.720;11.310;2024-03-22T01:01:15;25.23;;;16.02;;
53594;SDS011;39479;45.720;11.310;2024-03-22T01:03:41;28.30;;;18.27;;
53594;SDS011;39479;45.720;11.310;2024-03-22T01:06:07;29.65;;;18.67;;
53594;SDS011;39479;45.720;11.310;2024-03-22T01:08:33;24.65;;;15.93;;
53594;SDS011;39479;45.720;11.310;2024-03-22T01:10:59;19.42;;;13.50;;
53594;SDS011;39479;45.720;11.310;2024-03-22T01:13:26;19.23;;;13.05;;
53594;SDS011;39479;45.720;11.310;2024-03-22T01:15:52;16.20;;;12.25;;
53594;SDS011;39479;45.720;11.310;2024-03-22T01:18:18;15.93;;;11.27;;
53594;SDS011;39479;45.720;11.310;2024-03-22T01:20:44;13.68;;;9.40;;
53594;SDS011;39479;45.720;11.310;2024-03-22T01:23:10;10.80;;;7.28;;
53594;SDS011;39479;45.720;11.310;2024-03-22T01:25:36;12.57;;;7.72;;
53594;SDS011;39479;45.720;11.310;2024-03-22T01:28:02;10.30;;;7.43;;
53594;SDS011;39479;45.720;11.310;2024-03-22T01:30:29;12.73;;;8.57;;
53594;SDS011;39479;45.720;11.310;2024-03-22T01:32:55;11.52;;;7.65;;
53594;SDS011;39479;45.720;11.310;2024-03-22T01:35:21;12.73;;;8.65;;
53594;SDS011;39479;45.720;11.310;2024-03-22T01:37:47;12.93;;;8.80;;
53594;SDS011;39479;45.720;11.310;2024-03-22T01:40:13;14.57;;;9.05;;
53594;SDS011;39479;45.720;11.310;2024-03-22T01:42:40;11.63;;;8.10;;
53594;SDS011;39479;45.720;11.310;2024-03-22T01:45:06;8.80;;;7.38;;
53594;SDS011;39479;45.720;11.310;2024-03-22T01:47:32;8.85;;;6.93;;
53594;SDS011;39479;45.720;11.310;2024-03-22T01:49:58;8.70;;;6.50;;
53594;SDS011;39479;45.720;11.310;2024-03-22T01:52:24;9.52;;;6.97;;
53594;SDS011;39479;45.720;11.310;2024-03-22T01:54:50;8.68;;;6.43;;
53594;SDS011;39479;45.720;11.310;2024-03-22T01:57:16;9.27;;;5.75;;
53594;SDS011;39479;45.720;11.310;2024-03-22T01:59:42;6.55;;;4.68;;
53594;SDS011;39479;45.720;11.310;2024-03-22T02:02:08;7.20;;;4.93;;
53594;SDS011;39479;45.720;11.310;2024-03-22T02:04:36;6.75;;;5.30;;
53594;SDS011;39479;45.720;11.310;2024-03-22T02:07:02;5.57;;;4.47;;
53594;SDS011;39479;45.720;11.310;2024-03-22T02:09:28;4.75;;;3.65;;
53594;SDS011;39479;45.720;11.310;2024-03-22T02:11:54;5.80;;;4.15;;
53594;SDS011;39479;45.720;11.310;2024-03-22T02:14:20;6.68;;;4.97;;
53594;SDS011;39479;45.720;11.310;2024-03-22T02:16:46;7.07;;;4.82;;
53594;SDS011;39479;45.720;11.310;2024-03-22T02:19:27;6.53;;;4.63;;
53594;SDS011;39479;45.720;11.310;2024-03-22T02:21:53;5.53;;;4.43;;
53594;SDS011;39479;45.720;11.310;2024-03-22T02:24:19;5.57;;;4.03;;
53594;SDS011;39479;45.720;11.310;2024-03-22T02:26:45;5.35;;;4.20;;
53594;SDS011;39479;45.720;11.310;2024-03-22T02:29:11;5.55;;;4.22;;
53594;SDS011;39479;45.720;11.310;2024-03-22T02:31:37;5.50;;;3.95;;
53594;SDS011;39479;45.720;11.310;2024-03-22T02:34:03;5.43;;;4.18;;
53594;SDS011;39479;45.720;11.310;2024-03-22T02:36:29;6.60;;;4.00;;
53594;SDS011;39479;45.720;11.310;2024-03-22T02:38:55;6.28;;;4.07;;
53594;SDS011;39479;45.720;11.310;2024-03-22T02:41:21;5.03;;;3.80;;
53594;SDS011;39479;45.720;11.310;2024-03-22T02:43:47;5.07;;;3.70;;
53594;SDS011;39479;45.720;11.310;2024-03-22T02:46:13;4.32;;;3.63;;
53594;SDS011;39479;45.720;11.310;2024-03-22T02:48:39;4.72;;;3.72;;
53594;SDS011;39479;45.720;11.310;2024-03-22T02:51:05;4.80;;;3.28;;
53594;SDS011;39479;45.720;11.310;2024-03-22T02:53:31;5.80;;;4.10;;
53594;SDS011;39479;45.720;11.310;2024-03-22T02:55:59;6.30;;;3.80;;
53594;SDS011;39479;45.720;11.310;2024-03-22T02:58:26;7.03;;;4.40;;
53594;SDS011;39479;45.720;11.310;2024-03-22T03:00:51;6.45;;;4.00;;
53594;SDS011;39479;45.720;11.310;2024-03-22T03:03:17;5.03;;;3.50;;
53594;SDS011;39479;45.720;11.310;2024-03-22T03:05:43;5.03;;;3.63;;
53594;SDS011;39479;45.720;11.310;2024-03-22T03:08:09;4.90;;;3.33;;
53594;SDS011;39479;45.720;11.310;2024-03-22T03:10:36;4.13;;;3.40;;
53594;SDS011;39479;45.720;11.310;2024-03-22T03:13:02;3.78;;;3.38;;
53594;SDS011;39479;45.720;11.310;2024-03-22T03:15:28;3.42;;;3.13;;
53594;SDS011;39479;45.720;11.310;2024-03-22T03:17:54;3.85;;;3.38;;
53594;SDS011;39479;45.720;11.310;2024-03-22T03:20:20;4.22;;;3.50;;
53594;SDS011;39479;45.720;11.310;2024-03-22T03:22:46;5.30;;;3.45;;
53594;SDS011;39479;45.720;11.310;2024-03-22T03:25:12;5.63;;;3.45;;
53594;SDS011;39479;45.720;11.310;2024-03-22T03:27:57;4.28;;;3.22;;
53594;SDS011;39479;45.720;11.310;2024-03-22T03:30:23;4.28;;;3.42;;
53594;SDS011;39479;45.720;11.310;2024-03-22T03:32:49;4.50;;;3.70;;
53594;SDS011;39479;45.720;11.310;2024-03-22T03:35:15;5.50;;;3.35;;
53594;SDS011;39479;45.720;11.310;2024-03-22T03:37:41;5.95;;;3.70;;
53594;SDS011;39479;45.720;11.310;2024-03-22T03:40:07;4.97;;;4.00;;
53594;SDS011;39479;45.720;11.310;2024-03-22T03:42:33;6.00;;;3.80;;
53594;SDS011;39479;45.720;11.310;2024-03-22T03:44:59;6.70;;;3.85;;
53594;SDS011;39479;45.720;11.310;2024-03-22T03:47:25;9.93;;;4.70;;
53594;SDS011;39479;45.720;11.310;2024-03-22T03:49:51;5.18;;;3.72;;
53594;SDS011;39479;45.720;11.310;2024-03-22T03:52:17;4.38;;;3.55;;
53594;SDS011;39479;45.720;11.310;2024-03-22T03:54:43;4.72;;;3.75;;
53594;SDS011;39479;45.720;11.310;2024-03-22T03:57:09;4.38;;;3.50;;
53594;SDS011;39479;45.720;11.310;2024-03-22T03:59:35;6.03;;;3.80;;
53594;SDS011;39479;45.720;11.310;2024-03-22T04:02:01;3.92;;;3.53;;
53594;SDS011;39479;45.720;11.310;2024-03-22T04:04:27;5.03;;;4.15;;
53594;SDS011;39479;45.720;11.310;2024-03-22T04:06:53;5.82;;;3.60;;
53594;SDS011;39479;45.720;11.310;2024-03-22T04:09:20;5.72;;;3.85;;
53594;SDS011;39479;45.720;11.310;2024-03-22T04:11:46;4.70;;;3.72;;
53594;SDS011;39479;45.720;11.310;2024-03-22T04:14:12;5.40;;;3.90;;
53594;SDS011;39479;45.720;11.310;2024-03-22T04:16:38;5.82;;;3.80;;
53594;SDS011;39479;45.720;11.310;2024-03-22T04:19:04;5.18;;;3.83;;
53594;SDS011;39479;45.720;11.310;2024-03-22T04:21:30;6.00;;;4.57;;
53594;SDS011;39479;45.720;11.310;2024-03-22T04:23:56;4.20;;;3.58;;
53594;SDS011;39479;45.720;11.310;2024-03-22T04:26:22;4.80;;;4.00;;
53594;SDS011;39479;45.720;11.310;2024-03-22T04:28:48;5.10;;;3.92;;
53594;SDS011;39479;45.720;11.310;2024-03-22T04:31:14;6.88;;;3.75;;
53594;SDS011;39479;45.720;11.310;2024-03-22T04:33:41;5.40;;;3.67;;
53594;SDS011;39479;45.720;11.310;2024-03-22T04:36:07;5.88;;;3.80;;
53594;SDS011;39479;45.720;11.310;2024-03-22T04:38:35;6.25;;;3.95;;
53594;SDS011;39479;45.720;11.310;2024-03-22T04:41:02;5.75;;;3.90;;
53594;SDS011;39479;45.720;11.310;2024-03-22T04:43:28;5.60;;;4.03;;
53594;SDS011;39479;45.720;11.310;2024-03-22T04:45:54;4.75;;;3.53;;
53594;SDS011;39479;45.720;11.310;2024-03-22T04:48:20;5.20;;;4.20;;
53594;SDS011;39479;45.720;11.310;2024-03-22T04:50:47;6.35;;;4.25;;
53594;SDS011;39479;45.720;11.310;2024-03-22T04:53:15;6.53;;;4.18;;
53594;SDS011;39479;45.720;11.310;2024-03-22T04:55:42;5.30;;;4.32;;
53594;SDS011;39479;45.720;11.310;2024-03-22T04:58:11;4.32;;;3.78;;
53594;SDS011;39479;45.720;11.310;2024-03-22T05:00:37;4.35;;;3.60;;
53594;SDS011;39479;45.720;11.310;2024-03-22T05:03:03;5.60;;;3.78;;
53594;SDS011;39479;45.720;11.310;2024-03-22T05:05:29;5.60;;;3.92;;
53594;SDS011;39479;45.720;11.310;2024-03-22T05:07:55;5.60;;;4.03;;
53594;SDS011;39479;45.720;11.310;2024-03-22T05:10:21;4.78;;;3.83;;
53594;SDS011;39479;45.720;11.310;2024-03-22T05:12:47;5.05;;;3.83;;
53594;SDS011;39479;45.720;11.310;2024-03-22T05:15:13;4.05;;;3.60;;
53594;SDS011;39479;45.720;11.310;2024-03-22T05:17:39;4.57;;;3.53;;
53594;SDS011;39479;45.720;11.310;2024-03-22T05:20:06;4.13;;;3.70;;
53594;SDS011;39479;45.720;11.310;2024-03-22T05:22:36;4.40;;;3.80;;
53594;SDS011;39479;45.720;11.310;2024-03-22T05:25:02;7.13;;;3.55;;
53594;SDS011;39479;45.720;11.310;2024-03-22T05:27:28;4.55;;;3.50;;
53594;SDS011;39479;45.720;11.310;2024-03-22T05:29:54;4.97;;;3.67;;
53594;SDS011;39479;45.720;11.310;2024-03-22T05:32:20;4.72;;;3.75;;
53594;SDS011;39479;45.720;11.310;2024-03-22T05:34:46;3.85;;;3.40;;
53594;SDS011;39479;45.720;11.310;2024-03-22T05:37:12;4.18;;;3.60;;
53594;SDS011;39479;45.720;11.310;2024-03-22T05:39:38;4.43;;;3.50;;
53594;SDS011;39479;45.720;11.310;2024-03-22T05:42:05;4.10;;;3.20;;
53594;SDS011;39479;45.720;11.310;2024-03-22T05:44:31;4.93;;;3.47;;
53594;SDS011;39479;45.720;11.310;2024-03-22T05:46:57;5.93;;;3.60;;
53594;SDS011;39479;45.720;11.310;2024-03-22T05:49:23;4.43;;;3.33;;
53594;SDS011;39479;45.720;11.310;2024-03-22T05:51:49;4.63;;;3.53;;
53594;SDS011;39479;45.720;11.310;2024-03-22T05:54:15;4.25;;;3.45;;
53594;SDS011;39479;45.720;11.310;2024-03-22T05:56:41;3.75;;;3.45;;
53594;SDS011;39479;45.720;11.310;2024-03-22T05:59:07;3.88;;;3.47;;
53594;SDS011;39479;45.720;11.310;2024-03-22T06:01:33;5.13;;;3.30;;
53594;SDS011;39479;45.720;11.310;2024-03-22T06:03:59;4.40;;;3.35;;
53594;SDS011;39479;45.720;11.310;2024-03-22T06:06:26;3.53;;;3.20;;
53594;SDS011;39479;45.720;11.310;2024-03-22T06:08:52;7.10;;;3.00;;
53594;SDS011;39479;45.720;11.310;2024-03-22T06:11:19;4.28;;;3.10;;
53594;SDS011;39479;45.720;11.310;2024-03-22T06:13:46;3.50;;;3.20;;
53594;SDS011;39479;45.720;11.310;2024-03-22T06:16:12;4.88;;;3.20;;
53594;SDS011;39479;45.720;11.310;2024-03-22T06:18:38;3.42;;;3.13;;
53594;SDS011;39479;45.720;11.310;2024-03-22T06:21:05;4.38;;;2.90;;
53594;SDS011;39479;45.720;11.310;2024-03-22T06:23:31;3.80;;;2.80;;
53594;SDS011;39479;45.720;11.310;2024-03-22T06:25:57;3.72;;;3.10;;
53594;SDS011;39479;45.720;11.310;2024-03-22T06:28:25;4.65;;;2.97;;
53594;SDS011;39479;45.720;11.310;2024-03-22T06:30:51;4.35;;;2.97;;
53594;SDS011;39479;45.720;11.310;2024-03-22T06:33:17;4.25;;;3.38;;
53594;SDS011;39479;45.720;11.310;2024-03-22T06:35:44;8.77;;;3.70;;
53594;SDS011;39479;45.720;11.310;2024-03-22T06:38:10;3.90;;;3.50;;
53594;SDS011;39479;45.720;11.310;2024-03-22T06:40:36;4.72;;;3.35;;
53594;SDS011;39479;45.720;11.310;2024-03-22T06:43:02;3.95;;;3.20;;
53594;SDS011;39479;45.720;11.310;2024-03-22T06:45:28;4.80;;;2.90;;
53594;SDS011;39479;45.720;11.310;2024-03-22T06:47:54;3.30;;;3.00;;
53594;SDS011;39479;45.720;11.310;2024-03-22T06:50:20;3.63;;;3.00;;
53594;SDS011;39479;45.720;11.310;2024-03-22T06:52:52;3.15;;;2.88;;
53594;SDS011;39479;45.720;11.310;2024-03-22T06:55:18;2.92;;;2.65;;
53594;SDS011;39479;45.720;11.310;2024-03-22T06:57:48;4.32;;;2.80;;
53594;SDS011;39479;45.720;11.310;2024-03-22T07:00:14;3.20;;;2.90;;
53594;SDS011;39479;45.720;11.310;2024-03-22T07:02:41;3.03;;;2.72;;
53594;SDS011;39479;45.720;11.310;2024-03-22T07:05:07;3.58;;;2.80;;
53594;SDS011;39479;45.720;11.310;2024-03-22T07:07:34;2.92;;;2.50;;
53594;SDS011;39479;45.720;11.310;2024-03-22T07:10:00;3.13;;;2.47;;
53594;SDS011;39479;45.720;11.310;2024-03-22T07:12:26;3.20;;;2.63;;
53594;SDS011;39479;45.720;11.310;2024-03-22T07:14:52;4.18;;;3.03;;
53594;SDS011;39479;45.720;11.310;2024-03-22T07:17:18;7.25;;;2.90;;
53594;SDS011;39479;45.720;11.310;2024-03-22T07:19:49;4.45;;;2.80;;
53594;SDS011;39479;45.720;11.310;2024-03-22T07:22:16;5.30;;;2.90;;
53594;SDS011;39479;45.720;11.310;2024-03-22T07:24:41;3.85;;;3.13;;
53594;SDS011;39479;45.720;11.310;2024-03-22T07:27:07;3.70;;;2.90;;
53594;SDS011;39479;45.720;11.310;2024-03-22T07:29:33;4.82;;;2.75;;
53594;SDS011;39479;45.720;11.310;2024-03-22T07:31:59;2.88;;;2.60;;
53594;SDS011;39479;45.720;11.310;2024-03-22T07:34:25;4.45;;;2.60;;
53594;SDS011;39479;45.720;11.310;2024-03-22T07:36:51;4.05;;;2.80;;
53594;SDS011;39479;45.720;11.310;2024-03-22T07:39:18;3.05;;;2.72;;
53594;SDS011;39479;45.720;11.310;2024-03-22T07:41:44;2.95;;;2.63;;
53594;SDS011;39479;45.720;11.310;2024-03-22T07:44:10;5.10;;;2.88;;
53594;SDS011;39479;45.720;11.310;2024-03-22T07:46:36;3.17;;;2.88;;
53594;SDS011;39479;45.720;11.310;2024-03-22T07:49:02;3.17;;;2.72;;
53594;SDS011;39479;45.720;11.310;2024-03-22T07:51:29;3.03;;;2.72;;
53594;SDS011;39479;45.720;11.310;2024-03-22T07:53:55;3.40;;;2.83;;
53594;SDS011;39479;45.720;11.310;2024-03-22T07:56:21;3.67;;;2.90;;
53594;SDS011;39479;45.720;11.310;2024-03-22T07:58:47;8.20;;;3.30;;
53594;SDS011;39479;45.720;11.310;2024-03-22T08:01:13;3.80;;;3.10;;
53594;SDS011;39479;45.720;11.310;2024-03-22T08:03:40;4.57;;;3.40;;
53594;SDS011;39479;45.720;11.310;2024-03-22T08:06:06;4.07;;;2.70;;
53594;SDS011;39479;45.720;11.310;2024-03-22T08:08:32;4.93;;;3.15;;
53594;SDS011;39479;45.720;11.310;2024-03-22T08:10:58;4.88;;;2.80;;
53594;SDS011;39479;45.720;11.310;2024-03-22T08:13:24;2.88;;;2.67;;
53594;SDS011;39479;45.720;11.310;2024-03-22T08:15:50;3.80;;;2.70;;
53594;SDS011;39479;45.720;11.310;2024-03-22T08:18:16;2.92;;;2.72;;
53594;SDS011;39479;45.720;11.310;2024-03-22T08:20:42;3.53;;;3.22;;
53594;SDS011;39479;45.720;11.310;2024-03-22T08:23:09;2.85;;;2.65;;
53594;SDS011;39479;45.720;11.310;2024-03-22T08:25:35;2.95;;;2.65;;
53594;SDS011;39479;45.720;11.310;2024-03-22T08:28:02;3.72;;;3.33;;
53594;SDS011;39479;45.720;11.310;2024-03-22T08:30:28;3.92;;;2.90;;
53594;SDS011;39479;45.720;11.310;2024-03-22T08:32:54;3.30;;;3.00;;
53594;SDS011;39479;45.720;11.310;2024-03-22T08:35:20;4.03;;;3.25;;
53594;SDS011;39479;45.720;11.310;2024-03-22T08:37:46;3.10;;;2.85;;
53594;SDS011;39479;45.720;11.310;2024-03-22T08:40:12;3.53;;;2.80;;
53594;SDS011;39479;45.720;11.310;2024-03-22T08:42:39;2.80;;;2.60;;
53594;SDS011;39479;45.720;11.310;2024-03-22T08:45:05;2.90;;;2.50;;
53594;SDS011;39479;45.720;11.310;2024-03-22T08:47:31;3.67;;;2.80;;
53594;SDS011;39479;45.720;11.310;2024-03-22T08:49:58;2.92;;;2.60;;
53594;SDS011;39479;45.720;11.310;2024-03-22T08:52:24;3.00;;;2.67;;
53594;SDS011;39479;45.720;11.310;2024-03-22T08:54:50;3.40;;;2.85;;
53594;SDS011;39479;45.720;11.310;2024-03-22T08:57:16;4.88;;;3.40;;
53594;SDS011;39479;45.720;11.310;2024-03-22T08:59:42;3.10;;;2.80;;
53594;SDS011;39479;45.720;11.310;2024-03-22T09:02:08;3.33;;;2.85;;
53594;SDS011;39479;45.720;11.310;2024-03-22T09:04:36;3.13;;;2.80;;
53594;SDS011;39479;45.720;11.310;2024-03-22T09:07:02;3.88;;;3.30;;
53594;SDS011;39479;45.720;11.310;2024-03-22T09:09:28;3.15;;;2.85;;
53594;SDS011;39479;45.720;11.310;2024-03-22T09:11:54;3.17;;;2.65;;
53594;SDS011;39479;45.720;11.310;2024-03-22T09:14:20;3.47;;;2.92;;
53594;SDS011;39479;45.720;11.310;2024-03-22T09:16:46;5.03;;;3.60;;
53594;SDS011;39479;45.720;11.310;2024-03-22T09:19:12;3.25;;;3.05;;
53594;SDS011;39479;45.720;11.310;2024-03-22T09:21:38;4.95;;;3.60;;
53594;SDS011;39479;45.720;11.310;2024-03-22T09:24:04;4.68;;;3.53;;
53594;SDS011;39479;45.720;11.310;2024-03-22T09:26:31;4.30;;;3.60;;
53594;SDS011;39479;45.720;11.310;2024-03-22T09:28:57;4.78;;;3.63;;
53594;SDS011;39479;45.720;11.310;2024-03-22T09:31:23;4.47;;;3.60;;
53594;SDS011;39479;45.720;11.310;2024-03-22T09:33:49;3.75;;;3.35;;
53594;SDS011;39479;45.720;11.310;2024-03-22T09:36:15;5.28;;;4.63;;
53594;SDS011;39479;45.720;11.310;2024-03-22T09:38:41;4.72;;;4.20;;
53594;SDS011;39479;45.720;11.310;2024-03-22T09:41:07;5.20;;;3.97;;
53594;SDS011;39479;45.720;11.310;2024-03-22T09:43:33;5.75;;;4.40;;
53594;SDS011;39479;45.720;11.310;2024-03-22T09:46:01;5.75;;;4.85;;
53594;SDS011;39479;45.720;11.310;2024-03-22T09:48:27;6.35;;;4.65;;
53594;SDS011;39479;45.720;11.310;2024-03-22T09:50:54;4.85;;;4.15;;
53594;SDS011;39479;45.720;11.310;2024-03-22T09:53:21;5.00;;;4.35;;
53594;SDS011;39479;45.720;11.310;2024-03-22T09:55:48;6.38;;;5.10;;
53594;SDS011;39479;45.720;11.310;2024-03-22T09:58:14;6.45;;;5.60;;
53594;SDS011;39479;45.720;11.310;2024-03-22T10:00:43;6.80;;;5.78;;
53594;SDS011;39479;45.720;11.310;2024-03-22T10:03:12;9.07;;;7.13;;
53594;SDS011;39479;45.720;11.310;2024-03-22T10:05:38;8.27;;;6.20;;
53594;SDS011;39479;45.720;11.310;2024-03-22T10:08:04;6.78;;;6.07;;
53594;SDS011;39479;45.720;11.310;2024-03-22T10:10:33;7.13;;;6.15;;
53594;SDS011;39479;45.720;11.310;2024-03-22T10:13:00;7.68;;;6.68;;
53594;SDS011;39479;45.720;11.310;2024-03-22T10:15:26;7.68;;;5.85;;
53594;SDS011;39479;45.720;11.310;2024-03-22T10:17:52;9.65;;;7.47;;
53594;SDS011;39479;45.720;11.310;2024-03-22T10:20:21;9.25;;;7.00;;
53594;SDS011;39479;45.720;11.310;2024-03-22T10:22:55;11.40;;;7.47;;
53594;SDS011;39479;45.720;11.310;2024-03-22T10:25:23;8.32;;;6.65;;
53594;SDS011;39479;45.720;11.310;2024-03-22T10:27:49;5.82;;;4.90;;
53594;SDS011;39479;45.720;11.310;2024-03-22T10:30:15;6.35;;;4.80;;
53594;SDS011;39479;45.720;11.310;2024-03-22T10:32:42;6.28;;;4.72;;
53594;SDS011;39479;45.720;11.310;2024-03-22T10:35:08;6.15;;;4.57;;
53594;SDS011;39479;45.720;11.310;2024-03-22T10:37:38;6.22;;;4.38;;
53594;SDS011;39479;45.720;11.310;2024-03-22T10:40:04;4.97;;;4.40;;
53594;SDS011;39479;45.720;11.310;2024-03-22T10:42:40;4.57;;;4.18;;
53594;SDS011;39479;45.720;11.310;2024-03-22T10:45:07;3.95;;;3.40;;
53594;SDS011;39479;45.720;11.310;2024-03-22T10:47:34;5.00;;;3.75;;
53594;SDS011;39479;45.720;11.310;2024-03-22T10:52:26;4.38;;;3.50;;
53594;SDS011;39479;45.720;11.310;2024-03-22T10:54:52;4.32;;;3.83;;
53594;SDS011;39479;45.720;11.310;2024-03-22T10:57:19;6.07;;;4.47;;
53594;SDS011;39479;45.720;11.310;2024-03-22T10:59:46;5.93;;;4.32;;
53594;SDS011;39479;45.720;11.310;2024-03-22T11:02:12;5.38;;;4.05;;
53594;SDS011;39479;45.720;11.310;2024-03-22T11:04:38;6.22;;;4.68;;
53594;SDS011;39479;45.720;11.310;2024-03-22T11:07:04;4.68;;;3.90;;
53594;SDS011;39479;45.720;11.310;2024-03-22T11:09:30;5.82;;;4.03;;
53594;SDS011;39479;45.720;11.310;2024-03-22T11:11:56;3.53;;;3.17;;
53594;SDS011;39479;45.720;11.310;2024-03-22T11:14:24;4.38;;;3.13;;
53594;SDS011;39479;45.720;11.310;2024-03-22T11:16:50;4.65;;;3.40;;
53594;SDS011;39479;45.720;11.310;2024-03-22T11:19:16;4.47;;;3.85;;
53594;SDS011;39479;45.720;11.310;2024-03-22T11:21:42;5.03;;;4.13;;
53594;SDS011;39479;45.720;11.310;2024-03-22T11:24:08;4.60;;;3.97;;
53594;SDS011;39479;45.720;11.310;2024-03-22T11:26:36;5.43;;;3.90;;
53594;SDS011;39479;45.720;11.310;2024-03-22T11:29:02;3.65;;;2.65;;
53594;SDS011;39479;45.720;11.310;2024-03-22T11:31:28;4.65;;;4.10;;
53594;SDS011;39479;45.720;11.310;2024-03-22T11:33:54;5.03;;;4.30;;
53594;SDS011;39479;45.720;11.310;2024-03-22T11:36:20;5.03;;;3.78;;
53594;SDS011;39479;45.720;11.310;2024-03-22T11:38:46;4.72;;;4.15;;
53594;SDS011;39479;45.720;11.310;2024-03-22T11:41:18;5.25;;;3.90;;
53594;SDS011;39479;45.720;11.310;2024-03-22T11:43:45;5.03;;;3.75;;
53594;SDS011;39479;45.720;11.310;2024-03-22T11:46:13;4.78;;;3.63;;
53594;SDS011;39479;45.720;11.310;2024-03-22T11:48:42;6.07;;;3.97;;
53594;SDS011;39479;45.720;11.310;2024-03-22T11:51:09;6.18;;;4.10;;
53594;SDS011;39479;45.720;11.310;2024-03-22T11:53:35;4.20;;;3.63;;
53594;SDS011;39479;45.720;11.310;2024-03-22T11:56:05;5.00;;;4.20;;
53594;SDS011;39479;45.720;11.310;2024-03-22T11:58:31;5.13;;;4.13;;
53594;SDS011;39479;45.720;11.310;2024-03-22T12:00:57;4.40;;;3.90;;
53594;SDS011;39479;45.720;11.310;2024-03-22T12:03:23;5.47;;;3.97;;
53594;SDS011;39479;45.720;11.310;2024-03-22T12:05:49;4.45;;;3.60;;
53594;SDS011;39479;45.720;11.310;2024-03-22T12:08:16;6.20;;;4.22;;
53594;SDS011;39479;45.720;11.310;2024-03-22T12:10:42;5.45;;;4.28;;
53594;SDS011;39479;45.720;11.310;2024-03-22T12:13:08;5.90;;;4.75;;
53594;SDS011;39479;45.720;11.310;2024-03-22T12:15:34;7.95;;;5.45;;
53594;SDS011;39479;45.720;11.310;2024-03-22T12:18:00;5.97;;;4.38;;
53594;SDS011;39479;45.720;11.310;2024-03-22T12:20:26;6.53;;;4.78;;
53594;SDS011;39479;45.720;11.310;2024-03-22T12:22:52;5.93;;;4.57;;
53594;SDS011;39479;45.720;11.310;2024-03-22T12:25:18;6.53;;;5.18;;
53594;SDS011;39479;45.720;11.310;2024-03-22T12:27:46;7.30;;;5.20;;
53594;SDS011;39479;45.720;11.310;2024-03-22T12:30:12;6.68;;;5.00;;
53594;SDS011;39479;45.720;11.310;2024-03-22T12:32:38;7.85;;;5.22;;
53594;SDS011;39479;45.720;11.310;2024-03-22T12:35:04;8.68;;;6.75;;
53594;SDS011;39479;45.720;11.310;2024-03-22T12:37:31;9.10;;;7.38;;
53594;SDS011;39479;45.720;11.310;2024-03-22T12:39:57;8.02;;;7.03;;
53594;SDS011;39479;45.720;11.310;2024-03-22T12:42:23;7.32;;;6.05;;
53594;SDS011;39479;45.720;11.310;2024-03-22T12:44:49;8.82;;;6.75;;
53594;SDS011;39479;45.720;11.310;2024-03-22T12:47:15;9.88;;;7.07;;
53594;SDS011;39479;45.720;11.310;2024-03-22T12:49:41;9.20;;;7.43;;
53594;SDS011;39479;45.720;11.310;2024-03-22T12:52:07;8.05;;;7.10;;
53594;SDS011;39479;45.720;11.310;2024-03-22T12:54:33;10.05;;;6.35;;
53594;SDS011;39479;45.720;11.310;2024-03-22T12:56:59;9.70;;;7.03;;
53594;SDS011;39479;45.720;11.310;2024-03-22T12:59:25;9.68;;;7.55;;
53594;SDS011;39479;45.720;11.310;2024-03-22T13:01:51;11.20;;;7.55;;
53594;SDS011;39479;45.720;11.310;2024-03-22T13:04:18;9.52;;;8.52;;
53594;SDS011;39479;45.720;11.310;2024-03-22T13:06:44;9.18;;;6.32;;
53594;SDS011;39479;45.720;11.310;2024-03-22T13:09:10;10.45;;;7.95;;
53594;SDS011;39479;45.720;11.310;2024-03-22T13:11:37;10.82;;;7.20;;
53594;SDS011;39479;45.720;11.310;2024-03-22T13:14:06;9.82;;;7.53;;
53594;SDS011;39479;45.720;11.310;2024-03-22T13:16:32;10.40;;;8.07;;
53594;SDS011;39479;45.720;11.310;2024-03-22T13:18:58;8.88;;;7.35;;
53594;SDS011;39479;45.720;11.310;2024-03-22T13:21:24;12.65;;;7.63;;
53594;SDS011;39479;45.720;11.310;2024-03-22T13:23:52;11.35;;;8.38;;
53594;SDS011;39479;45.720;11.310;2024-03-22T13:26:18;9.27;;;7.13;;
53594;SDS011;39479;45.720;11.310;2024-03-22T13:28:44;10.43;;;8.23;;
53594;SDS011;39479;45.720;11.310;2024-03-22T13:31:11;9.82;;;7.45;;
53594;SDS011;39479;45.720;11.310;2024-03-22T13:33:38;7.88;;;5.43;;
53594;SDS011;39479;45.720;11.310;2024-03-22T13:36:04;9.43;;;6.47;;
53594;SDS011;39479;45.720;11.310;2024-03-22T13:38:30;8.48;;;6.25;;
53594;SDS011;39479;45.720;11.310;2024-03-22T13:40:56;9.63;;;7.13;;
53594;SDS011;39479;45.720;11.310;2024-03-22T13:43:23;7.88;;;6.53;;
53594;SDS011;39479;45.720;11.310;2024-03-22T13:45:52;5.90;;;4.63;;
53594;SDS011;39479;45.720;11.310;2024-03-22T13:48:22;8.57;;;6.80;;
53594;SDS011;39479;45.720;11.310;2024-03-22T13:50:52;7.95;;;6.40;;
53594;SDS011;39479;45.720;11.310;2024-03-22T13:53:19;7.70;;;5.95;;
53594;SDS011;39479;45.720;11.310;2024-03-22T13:55:47;9.55;;;6.15;;
53594;SDS011;39479;45.720;11.310;2024-03-22T13:58:12;6.93;;;5.57;;
53594;SDS011;39479;45.720;11.310;2024-03-22T14:00:39;10.00;;;7.50;;
53594;SDS011;39479;45.720;11.310;2024-03-22T14:03:05;9.90;;;7.53;;
53594;SDS011;39479;45.720;11.310;2024-03-22T14:05:31;8.75;;;7.40;;
53594;SDS011;39479;45.720;11.310;2024-03-22T14:08:00;11.13;;;6.93;;
53594;SDS011;39479;45.720;11.310;2024-03-22T14:10:26;14.13;;;9.10;;
53594;SDS011;39479;45.720;11.310;2024-03-22T14:12:52;8.50;;;5.78;;
53594;SDS011;39479;45.720;11.310;2024-03-22T14:15:19;6.60;;;5.35;;
53594;SDS011;39479;45.720;11.310;2024-03-22T14:17:45;6.85;;;5.72;;
53594;SDS011;39479;45.720;11.310;2024-03-22T14:20:11;6.65;;;5.60;;
53594;SDS011;39479;45.720;11.310;2024-03-22T14:22:40;8.35;;;5.95;;
53594;SDS011;39479;45.720;11.310;2024-03-22T14:25:07;7.93;;;5.13;;
53594;SDS011;39479;45.720;11.310;2024-03-22T14:27:36;7.05;;;5.72;;